Time;durP1;ratioP1;P1;durP2;ratioP2;P2;SDS_P1;SDS_P2;PMS_P1;PMS_P2;Temp;Humidity;BMP_temperature;BMP_pressure;BME280_temperature;BME280_humidity;BME280_pressure;Samples;Min_cycle;Max_cycle;Signal;HPM_P1;HPM_P2
2023/08/13 00:00:16;;;;;;;;;3.60;3.60;;;;;16.63;79.38;100003.31;4979309;28;9507;-57
2023/08/13 00:02:44;;;;;;;;;9.20;7.80;;;;;16.61;79.35;100016.06;4978689;28;8845;-59
2023/08/13 00:05:12;;;;;;;;;8.60;7.80;;;;;16.60;79.63;100009.00;4978676;28;8871;-60
2023/08/13 00:07:40;;;;;;;;;6.60;6.40;;;;;16.57;79.39;100015.53;4977764;28;8828;-60
2023/08/13 00:10:08;;;;;;;;;4.80;4.40;;;;;16.56;79.56;100013.00;4978589;28;8840;-60
2023/08/13 00:12:36;;;;;;;;;5.60;5.20;;;;;16.56;79.39;100018.38;4978416;28;8840;-58
2023/08/13 00:15:04;;;;;;;;;6.80;6.00;;;;;16.56;80.03;100018.38;4978203;28;8911;-60
2023/08/13 00:17:32;;;;;;;;;4.80;4.80;;;;;16.54;79.36;100015.84;4978285;28;8854;-60
2023/08/13 00:20:00;;;;;;;;;6.20;6.00;;;;;16.54;79.58;100015.84;4978783;28;8914;-58
2023/08/13 00:22:28;;;;;;;;;10.00;9.20;;;;;16.53;79.20;100014.16;4978552;28;8835;-60
2023/08/13 00:24:56;;;;;;;;;6.60;6.00;;;;;16.53;79.78;100013.31;4978307;28;8832;-58
2023/08/13 00:27:23;;;;;;;;;11.60;10.80;;;;;16.55;79.67;100022.09;4978468;28;8859;-58
2023/08/13 00:29:51;;;;;;;;;6.20;6.20;;;;;16.54;79.51;100017.69;4977470;28;8820;-58
2023/08/13 00:32:19;;;;;;;;;6.00;5.60;;;;;16.53;79.68;100014.16;4978501;28;8867;-60
2023/08/13 00:34:47;;;;;;;;;6.00;5.00;;;;;16.52;79.42;100012.47;4978093;28;8863;-60
2023/08/13 00:37:16;;;;;;;;;9.00;6.40;;;;;16.50;79.33;100011.78;4977938;28;8847;-58
2023/08/13 00:39:44;;;;;;;;;7.80;7.80;;;;;16.50;79.33;100017.16;4978043;28;8825;-59
2023/08/13 00:42:12;;;;;;;;;9.40;7.40;;;;;16.50;79.14;100019.84;4978248;28;8907;-60
2023/08/13 00:44:40;;;;;;;;;6.40;6.20;;;;;16.51;79.65;100024.25;4978227;28;8832;-60
2023/08/13 00:47:08;;;;;;;;;7.00;6.80;;;;;16.52;79.29;100033.13;4978118;28;8832;-58
2023/08/13 00:49:36;;;;;;;;;3.00;3.00;;;;;16.54;79.69;100031.13;4977775;28;8808;-59
2023/08/13 00:52:03;;;;;;;;;7.40;7.40;;;;;16.57;79.08;100041.59;4978114;28;8919;-58
2023/08/13 00:54:31;;;;;;;;;7.40;6.40;;;;;16.64;78.84;100042.66;4977857;28;8848;-59
2023/08/13 00:57:01;;;;;;;;;5.20;4.00;;;;;16.68;78.73;100035.94;4978438;28;9604;-58
2023/08/13 00:59:29;;;;;;;;;4.40;3.60;;;;;16.72;78.88;100032.75;4977386;28;8829;-58
2023/08/13 01:01:56;;;;;;;;;3.00;3.00;;;;;16.75;78.52;100040.53;4977703;28;8820;-58
2023/08/13 01:04:24;;;;;;;;;8.60;6.40;;;;;16.79;78.51;100036.50;4977812;28;8813;-59
2023/08/13 01:06:52;;;;;;;;;3.80;3.80;;;;;16.82;78.83;100041.59;4977720;28;8840;-58
2023/08/13 01:09:20;;;;;;;;;6.00;6.00;;;;;16.87;78.39;100033.03;4977959;28;8835;-58
2023/08/13 01:11:47;;;;;;;;;4.80;4.00;;;;;16.88;78.03;100034.72;4977582;28;8829;-59
2023/08/13 01:14:15;;;;;;;;;6.00;4.00;;;;;16.90;78.33;100027.31;4977807;28;9483;-58
2023/08/13 01:16:43;;;;;;;;;4.80;4.40;;;;;16.90;78.02;100043.47;4977521;28;8849;-60
2023/08/13 01:19:11;;;;;;;;;4.00;4.00;;;;;16.90;78.70;100043.47;4976781;28;8833;-60
2023/08/13 01:21:38;;;;;;;;;6.00;6.00;;;;;16.91;78.64;100051.38;4977709;28;8821;-60
2023/08/13 01:24:06;;;;;;;;;6.60;6.60;;;;;16.93;78.16;100049.38;4976979;28;8831;-60
2023/08/13 01:26:33;;;;;;;;;6.00;5.20;;;;;16.97;78.43;100044.53;4977506;28;8854;-60
2023/08/13 01:29:01;;;;;;;;;4.00;4.00;;;;;17.01;77.85;100049.41;4976987;28;8836;-58
2023/08/13 01:31:29;;;;;;;;;5.60;5.60;;;;;17.06;77.43;100054.31;4976926;28;8829;-58
2023/08/13 01:33:57;;;;;;;;;4.80;3.60;;;;;17.09;77.68;100049.47;4977198;28;8832;-58
2023/08/13 01:36:25;;;;;;;;;4.80;4.80;;;;;17.13;77.85;100045.47;4977398;28;8962;-61
2023/08/13 01:38:52;;;;;;;;;6.00;6.00;;;;;17.18;77.84;100053.91;4977190;28;8860;-60
2023/08/13 01:41:20;;;;;;;;;7.00;6.80;;;;;17.24;77.66;100047.84;4977371;28;9479;-60
2023/08/13 01:43:48;;;;;;;;;8.20;7.80;;;;;17.29;77.25;100048.22;4976633;28;8931;-58
2023/08/13 01:46:16;;;;;;;;;6.00;4.40;;;;;17.36;77.61;100057.38;4976623;28;8817;-59
2023/08/13 01:48:43;;;;;;;;;7.80;6.00;;;;;17.39;77.24;100059.72;4977082;28;8831;-58
2023/08/13 01:51:11;;;;;;;;;6.00;6.00;;;;;17.40;77.12;100047.94;4977004;28;8833;-58
2023/08/13 01:53:38;;;;;;;;;4.80;4.40;;;;;17.41;77.50;100055.03;4977202;28;8832;-59
2023/08/13 01:56:06;;;;;;;;;5.20;4.00;;;;;17.42;77.18;100062.09;4977156;28;8837;-58
2023/08/13 01:58:34;;;;;;;;;6.20;6.20;;;;;17.44;77.01;100059.22;4976823;28;8805;-58
2023/08/13 02:01:01;;;;;;;;;6.60;6.00;;;;;17.45;77.14;100055.56;4977008;28;8843;-59
2023/08/13 02:03:29;;;;;;;;;6.00;6.00;;;;;17.47;76.91;100059.75;4977243;28;8828;-60
2023/08/13 02:05:57;;;;;;;;;4.40;4.40;;;;;17.48;77.04;100050.66;4977107;28;8866;-58
2023/08/13 02:08:25;;;;;;;;;4.40;4.00;;;;;17.48;76.87;100050.66;4977458;28;8864;-58
2023/08/13 02:10:52;;;;;;;;;6.00;4.40;;;;;17.48;77.27;100058.75;4976882;28;8829;-58
2023/08/13 02:13:20;;;;;;;;;4.00;4.00;;;;;17.47;77.36;100048.97;4976881;28;8870;-58
2023/08/13 02:15:47;;;;;;;;;7.00;6.60;;;;;17.44;77.43;100049.31;4977015;28;8828;-58
2023/08/13 02:18:15;;;;;;;;;4.00;4.00;;;;;17.45;77.10;100052.88;4976289;28;8829;-61
2023/08/13 02:20:43;;;;;;;;;6.00;5.20;;;;;17.43;76.89;100052.16;4976403;28;8837;-60
2023/08/13 02:23:10;;;;;;;;;7.20;4.40;;;;;17.42;77.55;100056.72;4976430;28;8824;-58
2023/08/13 02:25:38;;;;;;;;;4.80;4.80;;;;;17.41;77.34;100048.78;4976497;28;8824;-58
2023/08/13 02:28:06;;;;;;;;;6.80;6.00;;;;;17.42;77.55;100045.09;4976109;28;8840;-58
2023/08/13 02:30:34;;;;;;;;;5.60;5.20;;;;;17.43;77.77;100049.47;4976485;28;8867;-58
2023/08/13 02:33:01;;;;;;;;;4.80;4.80;;;;;17.42;77.46;100050.47;4979926;28;8882;-59
2023/08/13 02:35:29;;;;;;;;;4.00;4.00;;;;;17.42;77.22;100048.66;4979916;28;8843;-58
2023/08/13 02:37:57;;;;;;;;;9.20;7.80;;;;;17.43;77.29;100049.47;4980140;28;8832;-59
2023/08/13 02:40:25;;;;;;;;;1.80;1.80;;;;;17.43;77.51;100047.63;4980123;28;8859;-58
2023/08/13 02:42:52;;;;;;;;;6.00;6.00;;;;;17.43;77.30;100053.03;4980050;28;8841;-58
2023/08/13 02:45:20;;;;;;;;;4.00;4.00;;;;;17.41;77.28;100046.97;4979708;28;8859;-58
2023/08/13 02:47:48;;;;;;;;;6.00;6.00;;;;;17.42;77.55;100047.78;4979630;28;8933;-60
2023/08/13 02:50:16;;;;;;;;;6.00;6.00;;;;;17.41;77.41;100048.78;4979691;28;8845;-58
2023/08/13 02:52:43;;;;;;;;;6.80;6.00;;;;;17.39;77.48;100045.44;4979249;28;8845;-58
2023/08/13 02:55:11;;;;;;;;;5.20;5.20;;;;;17.38;77.63;100052.66;4979669;28;8848;-58
2023/08/13 02:57:38;;;;;;;;;9.20;7.80;;;;;17.36;77.90;100043.91;4979963;28;8867;-58
2023/08/13 03:00:17;;;;;;;;;6.00;6.00;;;;;17.32;77.64;100047.88;4979187;28;8903;-58
2023/08/13 03:02:45;;;;;;;;;6.20;6.00;;;;;17.27;77.40;100049.38;4979665;28;8833;-59
2023/08/13 03:05:12;;;;;;;;;6.00;4.80;;;;;17.22;77.98;100049.88;4979691;28;8832;-58
2023/08/13 03:07:40;;;;;;;;;9.00;7.00;;;;;17.14;77.86;100044.44;4979682;28;8828;-58
2023/08/13 03:10:08;;;;;;;;;4.20;3.80;;;;;17.08;78.57;100045.09;4979969;28;8851;-56
2023/08/13 03:12:35;;;;;;;;;6.60;6.60;;;;;17.02;78.54;100050.28;4979911;28;8859;-58
2023/08/13 03:15:03;;;;;;;;;4.00;4.00;;;;;16.95;78.81;100044.66;4979445;28;8828;-59
2023/08/13 03:17:30;;;;;;;;;5.20;5.20;;;;;16.87;78.99;100033.88;4979691;28;8829;-58
2023/08/13 03:19:59;;;;;;;;;4.40;4.00;;;;;16.82;79.13;100046.13;4979329;28;8820;-58
2023/08/13 03:22:26;;;;;;;;;7.00;6.60;;;;;16.77;78.67;100043.91;4979710;28;8829;-58
2023/08/13 03:24:54;;;;;;;;;3.60;3.60;;;;;16.71;78.87;100046.41;4979594;28;8859;-57
2023/08/13 03:27:22;;;;;;;;;4.80;4.80;;;;;16.65;78.89;100055.09;4979642;28;8824;-57
2023/08/13 03:29:49;;;;;;;;;8.80;6.00;;;;;16.60;79.64;100046.63;4979229;28;8817;-60
2023/08/13 03:32:17;;;;;;;;;4.00;4.00;;;;;16.55;79.48;100043.59;4979758;28;8871;-58
2023/08/13 03:34:45;;;;;;;;;6.00;6.00;;;;;16.51;78.94;100043.06;4979537;28;8845;-58
2023/08/13 03:37:13;;;;;;;;;6.60;6.60;;;;;16.49;79.57;100042.34;4979871;28;9570;-59
2023/08/13 03:39:40;;;;;;;;;7.00;7.00;;;;;16.49;79.15;100038.84;4979245;28;8816;-58
2023/08/13 03:42:08;;;;;;;;;8.20;7.00;;;;;16.49;79.35;100038.84;4979306;28;8855;-58
2023/08/13 03:44:35;;;;;;;;;6.00;6.00;;;;;16.49;79.00;100036.97;4979297;28;8832;-59
2023/08/13 03:47:03;;;;;;;;;6.00;6.00;;;;;16.49;79.61;100039.66;4979191;28;8852;-57
2023/08/13 03:49:31;;;;;;;;;4.00;4.00;;;;;16.48;79.27;100031.78;4978992;28;8825;-58
2023/08/13 03:51:58;;;;;;;;;6.40;6.40;;;;;16.45;79.50;100038.31;4979026;28;8813;-58
2023/08/13 03:54:26;;;;;;;;;7.80;7.00;;;;;16.41;79.43;100036.09;4978890;28;8943;-58
2023/08/13 03:56:54;;;;;;;;;4.00;4.00;;;;;16.36;79.33;100039.22;4979076;28;8856;-58
2023/08/13 03:59:21;;;;;;;;;7.00;6.40;;;;;16.33;79.07;100049.44;4979229;28;8817;-58
2023/08/13 04:01:49;;;;;;;;;6.00;5.60;;;;;16.28;79.71;100047.22;4979159;28;8820;-60
2023/08/13 04:04:17;;;;;;;;;6.40;6.00;;;;;16.24;79.70;100050.34;4979233;28;8832;-60
2023/08/13 04:06:45;;;;;;;;;3.60;3.60;;;;;16.22;79.20;100038.09;4979119;28;9599;-59
2023/08/13 04:09:12;;;;;;;;;4.00;3.80;;;;;16.19;79.88;100041.94;4978868;28;8833;-59
2023/08/13 04:11:40;;;;;;;;;5.60;4.40;;;;;16.17;79.68;100052.00;4978837;28;9400;-59
2023/08/13 04:14:08;;;;;;;;;3.40;3.40;;;;;16.14;79.75;100054.97;4978921;28;8821;-58
2023/08/13 04:16:36;;;;;;;;;4.00;4.00;;;;;16.10;80.05;100058.13;4978546;28;8833;-57
2023/08/13 04:19:04;;;;;;;;;6.20;6.20;;;;;16.06;80.33;100059.41;4978452;28;8860;-59
2023/08/13 04:21:31;;;;;;;;;3.00;3.00;;;;;16.04;79.74;100062.28;4978714;28;8829;-60
2023/08/13 04:23:59;;;;;;;;;5.20;4.00;;;;;16.03;80.09;100062.41;4978351;28;8824;-60
2023/08/13 04:26:26;;;;;;;;;4.00;4.00;;;;;16.02;80.09;100052.69;4978764;28;8813;-58
2023/08/13 04:28:54;;;;;;;;;4.40;4.40;;;;;16.03;80.20;100057.06;4978128;28;8821;-58
2023/08/13 04:31:22;;;;;;;;;7.00;6.00;;;;;16.04;79.89;100058.72;4978472;28;8840;-58
2023/08/13 04:33:49;;;;;;;;;6.20;4.80;;;;;16.05;80.03;100060.41;4978405;28;8927;-60
2023/08/13 04:36:17;;;;;;;;;3.40;3.40;;;;;16.06;79.59;100057.59;4978280;28;8963;-58
2023/08/13 04:38:45;;;;;;;;;6.60;5.20;;;;;16.07;79.62;100053.06;4978415;28;8845;-58
2023/08/13 04:41:12;;;;;;;;;5.20;5.20;;;;;16.07;79.57;100055.75;4978039;28;8828;-60
2023/08/13 04:43:40;;;;;;;;;4.40;1.40;;;;;16.07;79.53;100055.75;4979020;28;8829;-58
2023/08/13 04:46:08;;;;;;;;;6.00;4.80;;;;;16.08;79.69;100062.81;4978974;28;8836;-57
2023/08/13 04:48:35;;;;;;;;;3.00;3.00;;;;;16.09;79.35;100059.13;4978390;28;8928;-58
2023/08/13 04:51:03;;;;;;;;;5.60;4.80;;;;;16.10;79.11;100068.88;4977761;28;8832;-57
2023/08/13 04:53:31;;;;;;;;;3.00;3.00;;;;;16.11;79.44;100065.19;4976961;28;8847;-58
2023/08/13 04:55:58;;;;;;;;;5.60;5.20;;;;;16.12;79.55;100056.97;4976884;28;9483;-59
2023/08/13 04:58:26;;;;;;;;;4.00;4.00;;;;;16.14;79.02;100059.53;4977784;28;8867;-58
2023/08/13 05:00:54;;;;;;;;;5.60;4.00;;;;;16.17;79.08;100059.19;4977645;28;8828;-59
2023/08/13 05:03:22;;;;;;;;;0.00;0.00;;;;;16.17;78.86;100065.44;4978163;28;8950;-58
2023/08/13 05:05:49;;;;;;;;;4.00;4.00;;;;;16.20;79.11;100063.25;4977668;28;8961;-58
2023/08/13 05:08:17;;;;;;;;;4.00;4.00;;;;;16.24;79.05;100055.72;4977773;28;8871;-57
2023/08/13 05:10:44;;;;;;;;;4.00;3.00;;;;;16.30;78.69;100055.97;4977225;28;8946;-58
2023/08/13 05:13:12;;;;;;;;;3.60;3.60;;;;;16.36;79.16;100059.88;4977509;28;8828;-58
2023/08/13 05:15:40;;;;;;;;;3.00;1.00;;;;;16.43;78.37;100067.19;4977571;28;8844;-58
2023/08/13 05:18:08;;;;;;;;;5.00;4.80;;;;;16.50;78.18;100072.78;4977540;28;8832;-58
2023/08/13 05:20:36;;;;;;;;;4.00;4.00;;;;;16.57;78.45;100069.31;4977670;28;8817;-58
2023/08/13 05:23:03;;;;;;;;;4.00;4.00;;;;;16.65;78.02;100066.66;4977230;28;8812;-58
2023/08/13 05:25:36;;;;;;;;;4.80;4.80;;;;;16.77;78.09;100065.41;4977415;28;8854;-60
2023/08/13 05:28:04;;;;;;;;;3.20;3.20;;;;;16.90;77.39;100068.53;4976891;28;8895;-58
2023/08/13 05:30:32;;;;;;;;;4.00;4.00;;;;;17.03;77.09;100070.78;4977147;28;8870;-59
2023/08/13 05:33:00;;;;;;;;;4.00;4.00;;;;;17.15;77.26;100066.84;4976357;28;8843;-57
2023/08/13 05:35:27;;;;;;;;;6.20;4.80;;;;;17.23;77.08;100062.31;4976903;28;8836;-60
2023/08/13 05:37:55;;;;;;;;;4.00;4.00;;;;;17.27;76.88;100066.38;4976745;28;8856;-58
2023/08/13 05:40:23;;;;;;;;;4.00;3.80;;;;;17.35;76.45;100062.88;4976995;28;9530;-58
2023/08/13 05:42:51;;;;;;;;;4.00;4.00;;;;;17.38;76.53;100071.50;4976921;28;8828;-60
2023/08/13 05:45:18;;;;;;;;;4.00;3.00;;;;;17.41;76.84;100073.88;4976141;28;8831;-58
2023/08/13 05:47:46;;;;;;;;;4.00;4.00;;;;;17.46;76.52;100074.22;4976962;28;8868;-59
2023/08/13 05:50:14;;;;;;;;;4.80;4.40;;;;;17.54;76.25;100074.25;4976608;28;9527;-60
2023/08/13 05:52:41;;;;;;;;;6.40;6.00;;;;;17.63;76.41;100075.13;4976543;28;9595;-59
2023/08/13 05:55:09;;;;;;;;;4.00;4.00;;;;;17.70;76.36;100071.59;4976607;28;8848;-60
2023/08/13 05:57:36;;;;;;;;;6.80;6.60;;;;;17.79;76.07;100070.66;4976711;28;8857;-58
2023/08/13 06:00:09;;;;;;;;;6.20;5.60;;;;;17.91;75.90;100066.63;4976617;28;8873;-60
2023/08/13 06:02:37;;;;;;;;;4.00;4.00;;;;;18.02;75.52;100066.31;4977186;28;8907;-58
2023/08/13 06:05:07;;;;;;;;;3.40;3.40;;;;;18.09;75.14;100067.34;4977272;28;8822;-57
2023/08/13 06:07:34;;;;;;;;;5.60;5.60;;;;;18.17;74.91;100059.25;4980511;28;8868;-60
2023/08/13 06:10:02;;;;;;;;;6.40;4.80;;;;;18.20;74.71;100064.31;4980213;28;8844;-61
2023/08/13 06:12:30;;;;;;;;;4.00;4.00;;;;;18.22;75.16;100064.97;4982150;28;8926;-58
2023/08/13 06:14:58;;;;;;;;;4.80;4.00;;;;;18.28;75.11;100074.28;4980570;28;8960;-60
2023/08/13 06:17:25;;;;;;;;;4.20;3.60;;;;;18.32;75.07;100073.78;4980491;28;8863;-60
2023/08/13 06:19:53;;;;;;;;;4.40;4.00;;;;;18.38;74.96;100078.50;4980049;28;8817;-58
2023/08/13 06:22:21;;;;;;;;;3.80;3.60;;;;;18.46;74.88;100075.81;4980145;28;8875;-58
2023/08/13 06:24:49;;;;;;;;;5.60;4.40;;;;;18.53;74.48;100075.97;4979999;28;8824;-58
2023/08/13 06:27:17;;;;;;;;;1.00;0.20;;;;;18.62;74.75;100065.03;4980438;28;8947;-58
2023/08/13 06:29:45;;;;;;;;;4.00;4.00;;;;;18.73;74.10;100067.34;4980094;28;8828;-58
2023/08/13 06:32:33;;;;;;;;;0.00;0.00;;;;;18.86;74.24;100077.63;4979769;28;8950;-58
2023/08/13 06:35:00;;;;;;;;;3.00;3.00;;;;;18.95;73.92;100072.03;4980211;28;8820;-59
2023/08/13 06:37:28;;;;;;;;;3.80;3.00;;;;;19.04;73.73;100075.56;4978881;28;9547;-58
2023/08/13 06:39:55;;;;;;;;;2.20;2.20;;;;;19.10;73.36;100074.88;4979519;28;8840;-58
2023/08/13 06:42:23;;;;;;;;;3.60;3.60;;;;;19.15;73.37;100077.91;4979871;28;8860;-59
2023/08/13 06:44:51;;;;;;;;;4.00;3.00;;;;;19.17;73.75;100078.56;4979668;28;8843;-58
2023/08/13 06:47:19;;;;;;;;;1.60;1.00;;;;;19.22;73.45;100077.09;4979622;28;8979;-59
2023/08/13 06:49:46;;;;;;;;;3.40;3.40;;;;;19.29;73.63;100075.38;4979530;28;8829;-59
2023/08/13 06:52:14;;;;;;;;;3.20;3.20;;;;;19.36;73.40;100076.31;4979051;28;8847;-60
2023/08/13 06:54:42;;;;;;;;;3.00;3.00;;;;;19.43;72.88;100068.38;4979185;28;8820;-59
2023/08/13 06:57:10;;;;;;;;;3.80;3.00;;;;;19.51;73.04;100063.78;4979567;28;8845;-58
2023/08/13 06:59:37;;;;;;;;;4.20;3.20;;;;;19.58;72.47;100063.94;4979584;28;8859;-58
2023/08/13 07:02:05;;;;;;;;;2.20;2.20;;;;;19.62;72.55;100060.69;4978820;28;8829;-58
2023/08/13 07:04:33;;;;;;;;;1.80;1.80;;;;;19.69;72.78;100067.09;4979000;28;8828;-57
2023/08/13 07:07:00;;;;;;;;;1.60;1.60;;;;;19.73;72.30;100064.88;4979333;28;8848;-58
2023/08/13 07:09:28;;;;;;;;;3.60;1.60;;;;;19.81;72.32;100067.53;4979827;28;8849;-58
2023/08/13 07:11:56;;;;;;;;;1.00;1.00;;;;;19.91;72.03;100066.28;4979571;28;9006;-57
2023/08/13 07:14:23;;;;;;;;;1.00;1.00;;;;;20.08;71.58;100051.66;4978254;28;8836;-58
2023/08/13 07:16:52;;;;;;;;;2.00;1.00;;;;;20.27;71.50;100047.63;4978284;28;8836;-58
2023/08/13 07:19:19;;;;;;;;;1.00;0.40;;;;;20.43;70.82;100050.22;4978981;28;8824;-58
2023/08/13 07:21:47;;;;;;;;;1.60;1.60;;;;;20.61;70.65;100054.28;4979307;28;8979;-58
2023/08/13 07:24:15;;;;;;;;;2.00;2.00;;;;;20.75;70.50;100050.75;4978822;28;8831;-58
2023/08/13 07:26:42;;;;;;;;;0.80;0.80;;;;;20.80;70.09;100057.31;4979165;28;8859;-57
2023/08/13 07:29:10;;;;;;;;;1.00;1.00;;;;;20.85;69.90;100057.59;4978527;28;8828;-58
2023/08/13 07:31:38;;;;;;;;;1.20;1.20;;;;;20.88;70.02;100060.97;4978789;28;8875;-58
2023/08/13 07:34:06;;;;;;;;;1.40;1.40;;;;;20.92;70.48;100059.59;4979039;28;8829;-58
2023/08/13 07:36:34;;;;;;;;;2.00;1.20;;;;;21.01;70.16;100057.47;4978772;28;8861;-59
2023/08/13 07:39:02;;;;;;;;;1.00;1.00;;;;;21.14;69.35;100048.69;4978955;28;9613;-60
2023/08/13 07:41:29;;;;;;;;;1.00;1.00;;;;;21.23;69.36;100056.53;4978333;28;9535;-60
2023/08/13 07:43:57;;;;;;;;;1.00;1.00;;;;;21.31;69.44;100058.28;4978648;28;8972;-59
2023/08/13 07:46:25;;;;;;;;;1.20;1.00;;;;;21.37;69.42;100057.53;4979146;28;8915;-59
2023/08/13 07:48:53;;;;;;;;;1.20;1.00;;;;;21.43;69.06;100054.09;4979324;28;8825;-58
2023/08/13 07:51:20;;;;;;;;;1.00;1.00;;;;;21.44;69.33;100053.06;4978896;28;8828;-60
2023/08/13 07:53:49;;;;;;;;;0.00;0.00;;;;;21.47;68.94;100060.81;4978673;28;8825;-60
2023/08/13 07:56:17;;;;;;;;;1.00;1.00;;;;;21.50;69.00;100061.25;4978406;28;8824;-58
2023/08/13 07:58:44;;;;;;;;;1.20;1.20;;;;;21.58;69.06;100060.34;4978466;28;8851;-58
2023/08/13 08:01:13;;;;;;;;;1.00;1.00;;;;;21.67;68.46;100053.81;4977931;28;8828;-60
2023/08/13 08:03:41;;;;;;;;;3.60;2.00;;;;;21.76;68.43;100067.06;4977777;28;9565;-59
2023/08/13 08:06:08;;;;;;;;;1.80;1.80;;;;;21.78;68.73;100065.00;4977802;28;9614;-58
2023/08/13 08:08:36;;;;;;;;;0.00;0.00;;;;;21.79;68.50;100057.72;4978169;28;8852;-59
2023/08/13 08:11:04;;;;;;;;;0.20;0.00;;;;;21.79;68.26;100055.81;4977018;28;8836;-58
2023/08/13 08:13:32;;;;;;;;;1.80;0.60;;;;;21.83;68.20;100059.00;4977462;28;8911;-58
2023/08/13 08:16:00;;;;;;;;;0.40;0.40;;;;;21.88;68.48;100062.00;4977385;28;8833;-58
2023/08/13 08:18:29;;;;;;;;;1.00;0.00;;;;;21.96;68.21;100064.59;4978070;28;8926;-60
2023/08/13 08:20:56;;;;;;;;;0.20;0.20;;;;;22.03;67.47;100052.75;4978078;28;8944;-59
2023/08/13 08:23:24;;;;;;;;;1.20;1.00;;;;;22.12;67.63;100059.78;4976992;28;8899;-58
2023/08/13 08:25:52;;;;;;;;;0.00;0.00;;;;;22.13;67.31;100056.03;4977850;28;8904;-60
2023/08/13 08:28:20;;;;;;;;;0.20;0.20;;;;;22.17;67.59;100059.19;4976751;28;8820;-58
2023/08/13 08:30:48;;;;;;;;;0.00;0.00;;;;;22.25;67.18;100048.19;4977187;28;8903;-58
2023/08/13 08:33:16;;;;;;;;;1.20;1.00;;;;;22.37;67.52;100057.50;4978008;28;8828;-58
2023/08/13 08:35:43;;;;;;;;;1.00;0.80;;;;;22.53;66.64;100058.09;4978123;28;8852;-58
2023/08/13 08:38:11;;;;;;;;;1.00;1.00;;;;;22.71;66.07;100054.91;4977290;28;8923;-60
2023/08/13 08:40:39;;;;;;;;;1.00;1.00;;;;;22.86;66.33;100056.53;4978100;28;8959;-61
2023/08/13 08:43:07;;;;;;;;;2.00;1.00;;;;;22.95;65.66;100052.59;4977824;28;8840;-59
2023/08/13 08:45:35;;;;;;;;;0.00;0.00;;;;;23.07;65.32;100048.28;4977737;28;8834;-60
2023/08/13 08:48:03;;;;;;;;;0.00;0.00;;;;;23.20;65.77;100044.84;4977793;28;8844;-59
2023/08/13 08:50:31;;;;;;;;;0.00;0.00;;;;;23.22;65.19;100046.31;4977686;28;8833;-58
2023/08/13 08:52:59;;;;;;;;;0.00;0.00;;;;;23.31;65.27;100041.56;4977095;28;8827;-60
2023/08/13 08:55:27;;;;;;;;;0.00;0.00;;;;;23.43;64.62;100042.69;4976935;28;8832;-60
2023/08/13 08:57:55;;;;;;;;;1.00;0.60;;;;;23.59;64.31;100045.88;4976814;28;8841;-60
2023/08/13 09:00:23;;;;;;;;;0.00;0.00;;;;;23.67;64.49;100047.59;4976019;28;8827;-58
2023/08/13 09:02:51;;;;;;;;;1.00;0.40;;;;;23.73;64.23;100047.63;4976816;28;8828;-58
2023/08/13 09:05:19;;;;;;;;;1.00;1.00;;;;;23.77;63.68;100037.19;4976317;28;8859;-59
2023/08/13 09:07:47;;;;;;;;;0.00;0.00;;;;;23.80;64.18;100036.75;4977411;28;8845;-61
2023/08/13 09:10:15;;;;;;;;;0.00;0.00;;;;;23.87;64.06;100041.22;4976379;28;8955;-60
2023/08/13 09:12:42;;;;;;;;;1.00;1.00;;;;;23.92;63.78;100032.44;4977371;28;8963;-58
2023/08/13 09:15:10;;;;;;;;;0.80;0.80;;;;;24.01;63.71;100031.22;4976940;28;8828;-59
2023/08/13 09:17:38;;;;;;;;;1.00;1.00;;;;;24.06;63.81;100028.72;4976792;28;8872;-58
2023/08/13 09:20:06;;;;;;;;;0.00;0.00;;;;;24.10;63.71;100027.25;4976778;28;8841;-60
2023/08/13 09:22:34;;;;;;;;;1.40;1.40;;;;;24.13;63.68;100033.13;4976497;28;8833;-58
2023/08/13 09:25:02;;;;;;;;;0.00;0.00;;;;;24.17;63.65;100028.09;4976118;28;8828;-58
2023/08/13 09:27:30;;;;;;;;;2.00;0.40;;;;;24.22;63.74;100033.78;4976229;28;8836;-60
2023/08/13 09:29:59;;;;;;;;;0.80;0.80;;;;;24.24;62.77;100028.94;4976278;28;8864;-61
2023/08/13 09:32:31;;;;;;;;;0.40;0.40;;;;;24.28;63.49;100022.88;4976336;28;8930;-59
2023/08/13 09:34:58;;;;;;;;;0.00;0.00;;;;;24.40;62.93;100017.66;4975725;28;8808;-58
2023/08/13 09:37:26;;;;;;;;;1.00;1.00;;;;;24.54;62.50;100013.88;4975632;28;8832;-59
2023/08/13 09:39:54;;;;;;;;;1.20;1.00;;;;;24.68;62.46;100012.88;4976067;28;8926;-59
2023/08/13 09:42:22;;;;;;;;;0.00;0.00;;;;;24.84;62.62;100015.16;4975800;28;8829;-60
2023/08/13 09:44:51;;;;;;;;;0.00;0.00;;;;;25.00;61.84;100006.53;4976121;28;9503;-59
2023/08/13 09:47:19;;;;;;;;;1.00;1.00;;;;;25.13;61.53;100010.09;4976338;28;8841;-58
2023/08/13 09:49:47;;;;;;;;;1.00;1.00;;;;;25.30;61.40;100005.03;4975815;28;8994;-59
2023/08/13 09:52:15;;;;;;;;;0.20;0.20;;;;;25.52;60.42;100002.63;4975892;28;8828;-59
2023/08/13 09:54:43;;;;;;;;;1.40;1.00;;;;;25.80;59.96;99994.94;4975518;28;8828;-58
2023/08/13 09:57:11;;;;;;;;;0.00;0.00;;;;;26.04;60.09;99996.94;4977080;28;8828;-59
2023/08/13 09:59:39;;;;;;;;;1.00;1.00;;;;;26.25;59.62;99993.84;4978437;28;8986;-59
2023/08/13 10:02:07;;;;;;;;;1.00;1.00;;;;;26.55;59.05;99991.34;4976006;28;9702;-58
2023/08/13 10:04:35;;;;;;;;;1.00;0.00;;;;;26.83;58.80;99984.34;4975509;28;8895;-58
2023/08/13 10:07:03;;;;;;;;;0.00;0.00;;;;;27.08;58.36;99990.59;4976097;28;8824;-59
2023/08/13 10:09:32;;;;;;;;;1.80;1.80;;;;;27.26;57.70;99992.53;4976460;28;8869;-58
2023/08/13 10:12:00;;;;;;;;;1.00;1.00;;;;;27.38;58.14;99993.47;4975165;28;8840;-59
2023/08/13 10:14:28;;;;;;;;;1.40;1.40;;;;;27.46;57.55;99991.22;4975527;28;8845;-59
2023/08/13 10:16:56;;;;;;;;;1.00;1.00;;;;;27.61;57.62;99982.66;4976138;28;8967;-59
2023/08/13 10:19:26;;;;;;;;;1.00;1.00;;;;;27.74;57.12;99983.28;4976366;28;8852;-59
2023/08/13 10:21:54;;;;;;;;;1.20;1.20;;;;;27.70;57.05;99984.81;4976290;28;8860;-58
2023/08/13 10:24:23;;;;;;;;;1.00;1.00;;;;;27.78;57.42;99979.03;4976167;28;8841;-58
2023/08/13 10:26:51;;;;;;;;;0.00;0.00;;;;;27.95;56.78;99985.56;4976032;28;8866;-58
2023/08/13 10:29:19;;;;;;;;;1.00;0.80;;;;;27.94;56.52;99975.69;4975775;28;8853;-58
2023/08/13 10:31:49;;;;;;;;;2.00;1.80;;;;;28.05;56.76;99974.88;4976213;28;8825;-58
2023/08/13 10:34:18;;;;;;;;;2.00;1.60;;;;;28.24;56.25;99972.91;4975613;28;8809;-59
2023/08/13 10:36:46;;;;;;;;;2.00;1.20;;;;;28.28;56.39;99974.94;4975184;28;8886;-58
2023/08/13 10:39:15;;;;;;;;;1.00;1.00;;;;;28.30;55.87;99969.22;4975810;28;8974;-58
2023/08/13 10:41:42;;;;;;;;;1.60;1.60;;;;;28.34;56.09;99956.72;4975635;28;8833;-58
2023/08/13 10:44:10;;;;;;;;;2.00;2.00;;;;;28.24;55.88;99965.53;4975728;28;8848;-58
2023/08/13 10:46:39;;;;;;;;;1.60;1.00;;;;;28.10;56.57;99972.28;4976138;28;8829;-58
2023/08/13 10:49:07;;;;;;;;;1.00;1.00;;;;;27.94;56.79;99972.09;4975912;28;9703;-59
2023/08/13 10:51:34;;;;;;;;;2.00;2.00;;;;;28.10;56.16;99963.22;4976259;28;8844;-58
2023/08/13 10:54:02;;;;;;;;;2.00;2.00;;;;;28.47;55.55;99957.38;4979416;28;8906;-59
2023/08/13 10:56:30;;;;;;;;;1.40;1.40;;;;;28.89;54.32;99952.63;4978404;28;9515;-60
2023/08/13 10:58:58;;;;;;;;;2.00;2.00;;;;;29.51;53.01;99954.56;4978126;28;8848;-59
2023/08/13 11:01:26;;;;;;;;;1.00;1.00;;;;;30.07;52.17;99946.31;4977532;28;8841;-59
2023/08/13 11:03:54;;;;;;;;;2.00;2.00;;;;;30.33;51.48;99942.97;4977553;28;9545;-59
2023/08/13 11:06:22;;;;;;;;;1.00;1.00;;;;;30.35;51.31;99947.16;4977191;28;8873;-59
2023/08/13 11:08:50;;;;;;;;;2.00;2.00;;;;;30.20;51.53;99955.13;4977930;28;8861;-59
2023/08/13 11:11:18;;;;;;;;;2.00;2.00;;;;;29.67;52.36;99949.16;4977654;28;9858;-59
2023/08/13 11:13:46;;;;;;;;;1.80;1.80;;;;;29.31;53.50;99954.97;4977560;28;8845;-59
2023/08/13 11:16:15;;;;;;;;;1.00;1.00;;;;;28.62;55.13;99960.50;4977257;28;8856;-59
2023/08/13 11:18:43;;;;;;;;;2.00;1.80;;;;;28.06;55.47;99956.53;4977985;28;8943;-59
2023/08/13 11:21:11;;;;;;;;;1.00;1.00;;;;;27.81;56.73;99964.91;4978777;28;8848;-58
2023/08/13 11:23:39;;;;;;;;;1.20;1.20;;;;;27.78;56.70;99968.09;4978205;28;9566;-58
2023/08/13 11:26:07;;;;;;;;;3.40;2.60;;;;;27.65;56.98;99956.47;4977487;28;9030;-59
2023/08/13 11:28:36;;;;;;;;;5.60;5.20;;;;;27.47;57.07;99965.53;4977447;28;8824;-58
2023/08/13 11:31:04;;;;;;;;;3.00;2.00;;;;;27.18;57.24;99955.38;4977214;28;8853;-60
2023/08/13 11:33:32;;;;;;;;;2.80;2.80;;;;;26.95;57.68;99965.31;4976351;28;8860;-58
2023/08/13 11:36:00;;;;;;;;;1.00;1.00;;;;;26.68;58.41;99961.16;4977777;28;9546;-58